ALK103 VCBI-VRMM
Flight info
| Callsign | ALK103 |
|---|---|
| Flight time | 1h 6m |
| Altitude | 40000 |
| Route | LALUM DCT HOKEY HOKEY1B |
| Aircraft | A333/H-SDE2E3FGHIRWXY/L |
Departure
| Time | 2026-04-29 14:26 |
|---|---|
| Airport | Bandaranaike International Colombo Airport (VCBI) |
Arrival
| Time | 2026-04-29 15:32 |
|---|---|
| Airport | Velana International Airport (VRMM) |
| Time | Latitude | Longitude | Altitude | Speed | Heading |
|---|---|---|---|---|---|
| 2026-04-29 14:06 | 7.17644 | 79.88367 | 36 ft | 0 kts | 37° |
| 2026-04-29 14:19 | 7.17634 | 79.88360 | 36 ft | 3 kts | 37° |
| 2026-04-29 14:19 | 7.17619 | 79.88348 | 35 ft | 3 kts | 37° |
| 2026-04-29 14:19 | 7.17601 | 79.88339 | 35 ft | 3 kts | 356° |
| 2026-04-29 14:20 | 7.17582 | 79.88345 | 33 ft | 2 kts | 311° |
| 2026-04-29 14:20 | 7.17581 | 79.88346 | 33 ft | 0 kts | 311° |
| 2026-04-29 14:20 | 7.17584 | 79.88343 | 33 ft | 0 kts | 311° |
| 2026-04-29 14:21 | 7.17587 | 79.88338 | 33 ft | 2 kts | 309° |
| 2026-04-29 14:21 | 7.17600 | 79.88316 | 35 ft | 5 kts | 297° |
| 2026-04-29 14:22 | 7.17631 | 79.88278 | 38 ft | 10 kts | 325° |
| 2026-04-29 14:22 | 7.17713 | 79.88300 | 38 ft | 16 kts | 41° |
| 2026-04-29 14:22 | 7.17812 | 79.88387 | 38 ft | 22 kts | 41° |
| 2026-04-29 14:22 | 7.17943 | 79.88491 | 38 ft | 27 kts | 36° |
| 2026-04-29 14:23 | 7.18111 | 79.88609 | 38 ft | 31 kts | 34° |
| 2026-04-29 14:23 | 7.18284 | 79.88739 | 36 ft | 32 kts | 37° |
| 2026-04-29 14:23 | 7.18463 | 79.88877 | 39 ft | 33 kts | 37° |
| 2026-04-29 14:23 | 7.18646 | 79.89012 | 39 ft | 32 kts | 35° |
| 2026-04-29 14:24 | 7.18822 | 79.89150 | 40 ft | 32 kts | 34° |
| 2026-04-29 14:24 | 7.19009 | 79.89290 | 39 ft | 34 kts | 37° |
| 2026-04-29 14:24 | 7.19187 | 79.89416 | 39 ft | 27 kts | 13° |
| 2026-04-29 14:24 | 7.19281 | 79.89344 | 39 ft | 17 kts | 289° |
| 2026-04-29 14:25 | 7.19247 | 79.89249 | 39 ft | 15 kts | 224° |
| 2026-04-29 14:25 | 7.19231 | 79.89235 | 40 ft | 4 kts | 219° |
| 2026-04-29 14:25 | 7.19032 | 79.89083 | 40 ft | 72 kts | 216° |
| 2026-04-29 14:25 | 7.18443 | 79.88639 | 39 ft | 138 kts | 217° |
| 2026-04-29 14:26 | 7.17580 | 79.87978 | 493 ft | 160 kts | 217° |
| 2026-04-29 14:26 | 7.16692 | 79.87293 | 1292 ft | 161 kts | 216° |
| 2026-04-29 14:26 | 7.15795 | 79.86601 | 2150 ft | 170 kts | 216° |
| 2026-04-29 14:26 | 7.14773 | 79.85817 | 2560 ft | 202 kts | 217° |
| 2026-04-29 14:27 | 7.13557 | 79.84883 | 2818 ft | 237 kts | 216° |
| 2026-04-29 14:27 | 7.12194 | 79.83836 | 3413 ft | 252 kts | 216° |
| 2026-04-29 14:27 | 7.10782 | 79.82750 | 4231 ft | 259 kts | 217° |
| 2026-04-29 14:28 | 7.07833 | 79.80483 | 5841 ft | 273 kts | 216° |
| 2026-04-29 14:28 | 7.06309 | 79.79311 | 6719 ft | 277 kts | 216° |
| 2026-04-29 14:28 | 7.04775 | 79.78133 | 7630 ft | 280 kts | 215° |
| 2026-04-29 14:28 | 7.03215 | 79.76935 | 8488 ft | 285 kts | 216° |
| 2026-04-29 14:29 | 7.01622 | 79.75712 | 9381 ft | 291 kts | 216° |
| 2026-04-29 14:29 | 6.99998 | 79.74464 | 10189 ft | 298 kts | 215° |
| 2026-04-29 14:29 | 6.98298 | 79.73162 | 10632 ft | 319 kts | 215° |
| 2026-04-29 14:29 | 6.96472 | 79.71763 | 11049 ft | 337 kts | 216° |
| 2026-04-29 14:30 | 6.94584 | 79.70313 | 11726 ft | 345 kts | 216° |
| 2026-04-29 14:30 | 6.92662 | 79.68837 | 12496 ft | 350 kts | 216° |
| 2026-04-29 14:30 | 6.90713 | 79.67340 | 13293 ft | 355 kts | 215° |
| 2026-04-29 14:30 | 6.88750 | 79.65806 | 14024 ft | 361 kts | 218° |
| 2026-04-29 14:31 | 6.86956 | 79.64016 | 14711 ft | 367 kts | 229° |
| 2026-04-29 14:31 | 6.85475 | 79.61905 | 15421 ft | 372 kts | 234° |
| 2026-04-29 14:31 | 6.83947 | 79.59789 | 16122 ft | 376 kts | 231° |
| 2026-04-29 14:31 | 6.82343 | 79.57691 | 16807 ft | 380 kts | 231° |
| 2026-04-29 14:32 | 6.80704 | 79.55587 | 17513 ft | 384 kts | 230° |
| 2026-04-29 14:32 | 6.79042 | 79.53465 | 18215 ft | 388 kts | 230° |
| 2026-04-29 14:32 | 6.77359 | 79.51321 | 18781 ft | 392 kts | 230° |
| 2026-04-29 14:32 | 6.75659 | 79.49158 | 19354 ft | 396 kts | 230° |
| 2026-04-29 14:33 | 6.73943 | 79.46975 | 19965 ft | 399 kts | 230° |
| 2026-04-29 14:33 | 6.72217 | 79.44781 | 20540 ft | 402 kts | 230° |
| 2026-04-29 14:33 | 6.70471 | 79.42564 | 21118 ft | 406 kts | 230° |
| 2026-04-29 14:33 | 6.68711 | 79.40327 | 21681 ft | 409 kts | 230° |
| 2026-04-29 14:34 | 6.66937 | 79.38073 | 22241 ft | 413 kts | 230° |
| 2026-04-29 14:34 | 6.65144 | 79.35796 | 22798 ft | 417 kts | 230° |
| 2026-04-29 14:34 | 6.63363 | 79.33535 | 23337 ft | 420 kts | 230° |
| 2026-04-29 14:34 | 6.61541 | 79.31221 | 23809 ft | 424 kts | 230° |
| 2026-04-29 14:35 | 6.59704 | 79.28889 | 24269 ft | 426 kts | 230° |
| 2026-04-29 14:35 | 6.57859 | 79.26547 | 24734 ft | 429 kts | 230° |
| 2026-04-29 14:35 | 6.56003 | 79.24192 | 25198 ft | 431 kts | 230° |
| 2026-04-29 14:35 | 6.54142 | 79.21829 | 25657 ft | 433 kts | 230° |
| 2026-04-29 14:36 | 6.52261 | 79.19442 | 26098 ft | 436 kts | 230° |
| 2026-04-29 14:36 | 6.50371 | 79.17045 | 26550 ft | 438 kts | 230° |
| 2026-04-29 14:36 | 6.48471 | 79.14635 | 26969 ft | 441 kts | 230° |
| 2026-04-29 14:36 | 6.46563 | 79.12215 | 27400 ft | 443 kts | 230° |
| 2026-04-29 14:37 | 6.44642 | 79.09778 | 27826 ft | 446 kts | 230° |
| 2026-04-29 14:37 | 6.42713 | 79.07333 | 28259 ft | 448 kts | 230° |
| 2026-04-29 14:37 | 6.40769 | 79.04867 | 28674 ft | 451 kts | 230° |
| 2026-04-29 14:37 | 6.38811 | 79.02386 | 29067 ft | 454 kts | 230° |
| 2026-04-29 14:38 | 6.36845 | 78.99894 | 29471 ft | 456 kts | 230° |
| 2026-04-29 14:38 | 6.34868 | 78.97388 | 29858 ft | 459 kts | 230° |
| 2026-04-29 14:38 | 6.32876 | 78.94865 | 30178 ft | 462 kts | 230° |
| 2026-04-29 14:38 | 6.30872 | 78.92325 | 30501 ft | 465 kts | 230° |
| 2026-04-29 14:39 | 6.28941 | 78.89710 | 30833 ft | 468 kts | 236° |
| 2026-04-29 14:39 | 6.27355 | 78.86845 | 31172 ft | 471 kts | 243° |
| 2026-04-29 14:39 | 6.25948 | 78.83862 | 31490 ft | 473 kts | 244° |
| 2026-04-29 14:39 | 6.24570 | 78.80855 | 31832 ft | 475 kts | 244° |
| 2026-04-29 14:40 | 6.23190 | 78.77838 | 32238 ft | 475 kts | 244° |
| 2026-04-29 14:40 | 6.21811 | 78.74832 | 32747 ft | 472 kts | 244° |
| 2026-04-29 14:40 | 6.20437 | 78.71843 | 33241 ft | 470 kts | 244° |
| 2026-04-29 14:40 | 6.19073 | 78.68881 | 33729 ft | 469 kts | 244° |
| 2026-04-29 14:41 | 6.17715 | 78.65892 | 34142 ft | 468 kts | 245° |
| 2026-04-29 14:41 | 6.16449 | 78.62887 | 34515 ft | 467 kts | 246° |
| 2026-04-29 14:41 | 6.15203 | 78.59874 | 34907 ft | 466 kts | 246° |
| 2026-04-29 14:41 | 6.13961 | 78.56877 | 35312 ft | 464 kts | 246° |
| 2026-04-29 14:42 | 6.12717 | 78.53886 | 35701 ft | 463 kts | 246° |
| 2026-04-29 14:42 | 6.11471 | 78.50902 | 36066 ft | 462 kts | 246° |
| 2026-04-29 14:42 | 6.10227 | 78.47929 | 36450 ft | 461 kts | 247° |
| 2026-04-29 14:42 | 6.08985 | 78.44964 | 36802 ft | 461 kts | 246° |
| 2026-04-29 14:43 | 6.07743 | 78.42000 | 37172 ft | 459 kts | 247° |
| 2026-04-29 14:43 | 6.06504 | 78.39047 | 37558 ft | 457 kts | 247° |
| 2026-04-29 14:43 | 6.05272 | 78.36110 | 37940 ft | 456 kts | 247° |
| 2026-04-29 14:43 | 6.04043 | 78.33181 | 38296 ft | 455 kts | 247° |
| 2026-04-29 14:44 | 6.02815 | 78.30255 | 38641 ft | 453 kts | 248° |
| 2026-04-29 14:44 | 6.01592 | 78.27342 | 38933 ft | 452 kts | 248° |
| 2026-04-29 14:44 | 6.00372 | 78.24436 | 39220 ft | 451 kts | 248° |
| 2026-04-29 14:44 | 5.99156 | 78.21540 | 39498 ft | 450 kts | 248° |
| 2026-04-29 14:45 | 5.97941 | 78.18648 | 39779 ft | 448 kts | 248° |
| 2026-04-29 14:45 | 5.96725 | 78.15754 | 39888 ft | 452 kts | 247° |
| 2026-04-29 14:45 | 5.95498 | 78.12832 | 39911 ft | 457 kts | 247° |
| 2026-04-29 14:46 | 5.93019 | 78.06933 | 39912 ft | 457 kts | 247° |
| 2026-04-29 14:46 | 5.90550 | 78.01059 | 39909 ft | 456 kts | 247° |
| 2026-04-29 14:47 | 5.88082 | 77.95192 | 39911 ft | 456 kts | 248° |
| 2026-04-29 14:47 | 5.85629 | 77.89362 | 39898 ft | 457 kts | 248° |
| 2026-04-29 14:48 | 5.83156 | 77.83484 | 39893 ft | 457 kts | 247° |
| 2026-04-29 14:48 | 5.80682 | 77.77607 | 39910 ft | 457 kts | 247° |
| 2026-04-29 14:49 | 5.78207 | 77.71731 | 39909 ft | 457 kts | 248° |
| 2026-04-29 14:49 | 5.75729 | 77.65847 | 39909 ft | 457 kts | 248° |
| 2026-04-29 14:50 | 5.73249 | 77.59963 | 39912 ft | 457 kts | 248° |
| 2026-04-29 14:50 | 5.70772 | 77.54086 | 39911 ft | 458 kts | 248° |
| 2026-04-29 14:51 | 5.68287 | 77.48193 | 39906 ft | 458 kts | 248° |
| 2026-04-29 14:51 | 5.65803 | 77.42304 | 39906 ft | 458 kts | 248° |
| 2026-04-29 14:52 | 5.63317 | 77.36414 | 39908 ft | 458 kts | 248° |
| 2026-04-29 14:52 | 5.60830 | 77.30520 | 39909 ft | 458 kts | 248° |
| 2026-04-29 14:53 | 5.58342 | 77.24629 | 39910 ft | 458 kts | 248° |
| 2026-04-29 14:53 | 5.55855 | 77.18738 | 39908 ft | 459 kts | 248° |
| 2026-04-29 14:54 | 5.53367 | 77.12851 | 39909 ft | 458 kts | 248° |
| 2026-04-29 14:54 | 5.50882 | 77.06970 | 39909 ft | 458 kts | 248° |
| 2026-04-29 14:55 | 5.48396 | 77.01089 | 39901 ft | 458 kts | 248° |
| 2026-04-29 14:55 | 5.45910 | 76.95210 | 39906 ft | 457 kts | 248° |
| 2026-04-29 14:56 | 5.43424 | 76.89334 | 39903 ft | 457 kts | 248° |
| 2026-04-29 14:56 | 5.40936 | 76.83455 | 39911 ft | 459 kts | 247° |
| 2026-04-29 14:57 | 5.38430 | 76.77533 | 39907 ft | 462 kts | 247° |
| 2026-04-29 14:57 | 5.35914 | 76.71592 | 39905 ft | 463 kts | 248° |
| 2026-04-29 14:58 | 5.33398 | 76.65650 | 39906 ft | 463 kts | 248° |
| 2026-04-29 14:58 | 5.30881 | 76.59710 | 39909 ft | 463 kts | 247° |
| 2026-04-29 14:59 | 5.28364 | 76.53771 | 39908 ft | 462 kts | 248° |
| 2026-04-29 14:59 | 5.25845 | 76.47829 | 39909 ft | 463 kts | 248° |
| 2026-04-29 15:00 | 5.23334 | 76.41906 | 39911 ft | 465 kts | 248° |
| 2026-04-29 15:00 | 5.21209 | 76.36898 | 39911 ft | 466 kts | 248° |
| 2026-04-29 15:01 | 5.18672 | 76.30919 | 39909 ft | 466 kts | 247° |
| 2026-04-29 15:01 | 5.16144 | 76.24961 | 39905 ft | 462 kts | 248° |
| 2026-04-29 15:02 | 5.13633 | 76.19049 | 39909 ft | 460 kts | 248° |
| 2026-04-29 15:02 | 5.11145 | 76.13135 | 39908 ft | 459 kts | 250° |
| 2026-04-29 15:03 | 5.09167 | 76.07076 | 39911 ft | 455 kts | 253° |
| 2026-04-29 15:03 | 5.07315 | 76.01023 | 39915 ft | 454 kts | 253° |
| 2026-04-29 15:04 | 5.05473 | 75.95012 | 39909 ft | 454 kts | 253° |
| 2026-04-29 15:04 | 5.03614 | 75.88962 | 39911 ft | 454 kts | 253° |
| 2026-04-29 15:05 | 5.01755 | 75.82916 | 39913 ft | 454 kts | 253° |
| 2026-04-29 15:05 | 4.99893 | 75.76860 | 39909 ft | 454 kts | 253° |
| 2026-04-29 15:06 | 4.98029 | 75.70804 | 39914 ft | 455 kts | 253° |
| 2026-04-29 15:06 | 4.96163 | 75.64741 | 39912 ft | 455 kts | 253° |
| 2026-04-29 15:07 | 4.94294 | 75.58674 | 39907 ft | 455 kts | 253° |
| 2026-04-29 15:07 | 4.92439 | 75.52663 | 39841 ft | 442 kts | 253° |
| 2026-04-29 15:07 | 4.91533 | 75.49730 | 39417 ft | 440 kts | 252° |
| 2026-04-29 15:08 | 4.90629 | 75.46793 | 38898 ft | 442 kts | 252° |
| 2026-04-29 15:08 | 4.89721 | 75.43843 | 38421 ft | 443 kts | 252° |
| 2026-04-29 15:08 | 4.88814 | 75.40897 | 37927 ft | 442 kts | 252° |
| 2026-04-29 15:08 | 4.87907 | 75.37956 | 37489 ft | 441 kts | 252° |
| 2026-04-29 15:09 | 4.87003 | 75.35028 | 37016 ft | 440 kts | 251° |
| 2026-04-29 15:09 | 4.86099 | 75.32103 | 36549 ft | 439 kts | 252° |
| 2026-04-29 15:09 | 4.85195 | 75.29175 | 36079 ft | 439 kts | 251° |
| 2026-04-29 15:09 | 4.84292 | 75.26254 | 35596 ft | 439 kts | 251° |
| 2026-04-29 15:10 | 4.83388 | 75.23330 | 35065 ft | 441 kts | 252° |
| 2026-04-29 15:10 | 4.82477 | 75.20384 | 34499 ft | 443 kts | 251° |
| 2026-04-29 15:10 | 4.81560 | 75.17418 | 33815 ft | 448 kts | 252° |
| 2026-04-29 15:10 | 4.80632 | 75.14417 | 33077 ft | 452 kts | 252° |
| 2026-04-29 15:11 | 4.79698 | 75.11397 | 32388 ft | 455 kts | 252° |
| 2026-04-29 15:11 | 4.78757 | 75.08357 | 31689 ft | 458 kts | 251° |
| 2026-04-29 15:11 | 4.77811 | 75.05298 | 30931 ft | 461 kts | 251° |
| 2026-04-29 15:11 | 4.76859 | 75.02222 | 30331 ft | 461 kts | 251° |
| 2026-04-29 15:12 | 4.75911 | 74.99159 | 29812 ft | 458 kts | 251° |
| 2026-04-29 15:12 | 4.74970 | 74.96117 | 29212 ft | 456 kts | 251° |
| 2026-04-29 15:12 | 4.74034 | 74.93092 | 28674 ft | 452 kts | 251° |
| 2026-04-29 15:12 | 4.73106 | 74.90095 | 28123 ft | 449 kts | 251° |
| 2026-04-29 15:13 | 4.72184 | 74.87118 | 27589 ft | 446 kts | 251° |
| 2026-04-29 15:13 | 4.71265 | 74.84152 | 27054 ft | 443 kts | 251° |
| 2026-04-29 15:13 | 4.70352 | 74.81205 | 26516 ft | 441 kts | 251° |
| 2026-04-29 15:13 | 4.69444 | 74.78275 | 25957 ft | 440 kts | 251° |
| 2026-04-29 15:14 | 4.68550 | 74.75392 | 25423 ft | 438 kts | 251° |
| 2026-04-29 15:14 | 4.67650 | 74.72486 | 24890 ft | 436 kts | 251° |
| 2026-04-29 15:14 | 4.66753 | 74.69592 | 24354 ft | 434 kts | 251° |
| 2026-04-29 15:14 | 4.65858 | 74.66706 | 23808 ft | 433 kts | 251° |
| 2026-04-29 15:15 | 4.64953 | 74.63790 | 23226 ft | 431 kts | 251° |
| 2026-04-29 15:15 | 4.64078 | 74.60967 | 22659 ft | 428 kts | 251° |
| 2026-04-29 15:15 | 4.63199 | 74.58133 | 22121 ft | 424 kts | 251° |
| 2026-04-29 15:15 | 4.62329 | 74.55328 | 21598 ft | 420 kts | 251° |
| 2026-04-29 15:16 | 4.61466 | 74.52547 | 21069 ft | 416 kts | 251° |
| 2026-04-29 15:16 | 4.60611 | 74.49792 | 20552 ft | 412 kts | 251° |
| 2026-04-29 15:16 | 4.59763 | 74.47060 | 20038 ft | 409 kts | 251° |
| 2026-04-29 15:16 | 4.58922 | 74.44352 | 19522 ft | 405 kts | 251° |
| 2026-04-29 15:17 | 4.58088 | 74.41666 | 19014 ft | 402 kts | 251° |
| 2026-04-29 15:17 | 4.57260 | 74.39000 | 18506 ft | 399 kts | 251° |
| 2026-04-29 15:17 | 4.56438 | 74.36353 | 17972 ft | 396 kts | 251° |
| 2026-04-29 15:17 | 4.55625 | 74.33734 | 17428 ft | 392 kts | 251° |
| 2026-04-29 15:18 | 4.54818 | 74.31136 | 16926 ft | 387 kts | 251° |
| 2026-04-29 15:18 | 4.54058 | 74.28562 | 16434 ft | 383 kts | 254° |
| 2026-04-29 15:18 | 4.53423 | 74.25988 | 15945 ft | 378 kts | 255° |
| 2026-04-29 15:18 | 4.52824 | 74.23434 | 15446 ft | 374 kts | 255° |
| 2026-04-29 15:19 | 4.52234 | 74.20907 | 14942 ft | 371 kts | 255° |
| 2026-04-29 15:19 | 4.51647 | 74.18404 | 14453 ft | 367 kts | 255° |
| 2026-04-29 15:19 | 4.51064 | 74.15923 | 13976 ft | 364 kts | 255° |
| 2026-04-29 15:19 | 4.50486 | 74.13468 | 13475 ft | 360 kts | 255° |
| 2026-04-29 15:20 | 4.49914 | 74.11041 | 12967 ft | 356 kts | 255° |
| 2026-04-29 15:20 | 4.49349 | 74.08643 | 12496 ft | 352 kts | 255° |
| 2026-04-29 15:20 | 4.48788 | 74.06268 | 12043 ft | 349 kts | 255° |
| 2026-04-29 15:20 | 4.48232 | 74.03913 | 11581 ft | 346 kts | 255° |
| 2026-04-29 15:21 | 4.47679 | 74.01571 | 11113 ft | 344 kts | 255° |
| 2026-04-29 15:21 | 4.47131 | 73.99251 | 10712 ft | 340 kts | 255° |
| 2026-04-29 15:21 | 4.46598 | 73.96994 | 10631 ft | 324 kts | 255° |
| 2026-04-29 15:21 | 4.46094 | 73.94851 | 10568 ft | 308 kts | 255° |
| 2026-04-29 15:22 | 4.45610 | 73.92803 | 10435 ft | 299 kts | 256° |
| 2026-04-29 15:22 | 4.45129 | 73.90770 | 10048 ft | 301 kts | 255° |
| 2026-04-29 15:22 | 4.44666 | 73.88727 | 9656 ft | 301 kts | 259° |
| 2026-04-29 15:22 | 4.44491 | 73.86638 | 9284 ft | 300 kts | 267° |
| 2026-04-29 15:23 | 4.44473 | 73.84553 | 8942 ft | 298 kts | 269° |
| 2026-04-29 15:23 | 4.44481 | 73.82481 | 8585 ft | 296 kts | 269° |
| 2026-04-29 15:23 | 4.44489 | 73.80424 | 8233 ft | 294 kts | 269° |
| 2026-04-29 15:23 | 4.44494 | 73.78384 | 7876 ft | 292 kts | 269° |
| 2026-04-29 15:24 | 4.44496 | 73.76363 | 7532 ft | 288 kts | 269° |
| 2026-04-29 15:24 | 4.44494 | 73.74363 | 7181 ft | 286 kts | 269° |
| 2026-04-29 15:24 | 4.44490 | 73.72386 | 6847 ft | 283 kts | 269° |
| 2026-04-29 15:24 | 4.44486 | 73.70423 | 6501 ft | 280 kts | 269° |
| 2026-04-29 15:25 | 4.44482 | 73.68481 | 6158 ft | 277 kts | 269° |
| 2026-04-29 15:25 | 4.44477 | 73.66560 | 5812 ft | 274 kts | 269° |
| 2026-04-29 15:25 | 4.44474 | 73.64659 | 5553 ft | 272 kts | 269° |
| 2026-04-29 15:25 | 4.44474 | 73.62768 | 5186 ft | 271 kts | 269° |
| 2026-04-29 15:26 | 4.44474 | 73.60915 | 4848 ft | 268 kts | 269° |
| 2026-04-29 15:26 | 4.44475 | 73.59031 | 4582 ft | 265 kts | 269° |
| 2026-04-29 15:26 | 4.44475 | 73.57213 | 4370 ft | 256 kts | 269° |
| 2026-04-29 15:26 | 4.44385 | 73.55483 | 4119 ft | 249 kts | 254° |
| 2026-04-29 15:27 | 4.43478 | 73.54082 | 3961 ft | 240 kts | 217° |
| 2026-04-29 15:27 | 4.42006 | 73.53340 | 3860 ft | 230 kts | 199° |
| 2026-04-29 15:27 | 4.40479 | 73.53057 | 3715 ft | 225 kts | 185° |
| 2026-04-29 15:27 | 4.38926 | 73.53064 | 3427 ft | 223 kts | 180° |
| 2026-04-29 15:28 | 4.37367 | 73.53096 | 3110 ft | 225 kts | 183° |
| 2026-04-29 15:28 | 4.36310 | 73.53090 | 2893 ft | 226 kts | 183° |
| 2026-04-29 15:28 | 4.34226 | 73.53085 | 2500 ft | 227 kts | 182° |
| 2026-04-29 15:28 | 4.32644 | 73.53088 | 2216 ft | 226 kts | 181° |
| 2026-04-29 15:29 | 4.31080 | 73.53090 | 1934 ft | 223 kts | 181° |
| 2026-04-29 15:29 | 4.28046 | 73.53093 | 1354 ft | 212 kts | 182° |
| 2026-04-29 15:30 | 4.25274 | 73.53096 | 857 ft | 185 kts | 181° |
| 2026-04-29 15:30 | 4.24025 | 73.53097 | 636 ft | 175 kts | 181° |
| 2026-04-29 15:30 | 4.22865 | 73.53099 | 436 ft | 158 kts | 183° |
| 2026-04-29 15:30 | 4.21811 | 73.53099 | 238 ft | 144 kts | 182° |
| 2026-04-29 15:31 | 4.20852 | 73.53104 | 59 ft | 133 kts | 184° |
| 2026-04-29 15:31 | 4.19983 | 73.53111 | 19 ft | 114 kts | 184° |
| 2026-04-29 15:31 | 4.19306 | 73.53093 | 16 ft | 85 kts | 180° |
| 2026-04-29 15:31 | 4.18786 | 73.53112 | 16 ft | 67 kts | 180° |
| 2026-04-29 15:32 | 4.18362 | 73.53100 | 14 ft | 55 kts | 179° |
| 2026-04-29 15:32 | 4.18197 | 73.52992 | 13 ft | 25 kts | 272° |
| 2026-04-29 15:32 | 4.18272 | 73.52930 | 14 ft | 11 kts | 359° |
| 2026-04-29 15:32 | 4.18362 | 73.52928 | 14 ft | 14 kts | 359° |
| 2026-04-29 15:33 | 4.18462 | 73.52926 | 14 ft | 13 kts | 359° |
| 2026-04-29 15:33 | 4.18559 | 73.52927 | 15 ft | 11 kts | 0° |
| 2026-04-29 15:33 | 4.18639 | 73.52908 | 15 ft | 12 kts | 317° |
| 2026-04-29 15:33 | 4.18628 | 73.52845 | 15 ft | 10 kts | 214° |
| 2026-04-29 15:34 | 4.18559 | 73.52825 | 15 ft | 9 kts | 211° |
| 2026-04-29 15:34 | 4.18546 | 73.52790 | 15 ft | 0 kts | 270° |